Time;durP1;ratioP1;P1;durP2;ratioP2;P2;SDS_P1;SDS_P2;PMS_P1;PMS_P2;Temp;Humidity;BMP_temperature;BMP_pressure;BME280_temperature;BME280_humidity;BME280_pressure;Samples;Min_cycle;Max_cycle;Signal;HPM_P1;HPM_P2
2022/07/16 00:01:22;;;;;;;;;7.00;4.00;;;;;25.02;32.48;101672.34;4991536;27;45489;-72
2022/07/16 00:03:53;;;;;;;;;4.67;4.00;;;;;25.35;32.42;101727.19;4992244;27;45303;-73
2022/07/16 00:06:20;;;;;;;;;4.67;4.00;;;;;25.41;32.16;101739.44;4982338;27;45514;-72
2022/07/16 00:08:45;;;;;;;;;4.67;4.00;;;;;25.02;32.63;101678.56;5010979;27;46291;-72
2022/07/16 00:11:11;;;;;;;;;6.00;4.33;;;;;25.25;32.59;101731.22;5042269;27;45595;-74
2022/07/16 00:13:38;;;;;;;;;4.33;4.33;;;;;24.89;32.83;101669.31;4969941;27;45550;-72
2022/07/16 00:16:04;;;;;;;;;3.67;3.67;;;;;25.31;32.78;101738.97;4978382;28;45599;-72
2022/07/16 00:19:30;;;;;;;;;5.00;5.00;;;;;25.32;32.56;101748.78;4976419;27;46513;-72
2022/07/16 00:21:26;;;;;;;;;3.00;3.00;;;;;25.14;32.90;101717.38;4981284;27;45860;-71
2022/07/16 00:23:53;;;;;;;;;3.67;3.67;;;;;25.04;32.60;101703.50;4975678;27;45517;-73
2022/07/16 00:26:18;;;;;;;;;4.00;4.00;;;;;25.09;33.68;101740.81;4991033;27;45454;-74
2022/07/16 00:28:44;;;;;;;;;4.00;4.00;;;;;25.01;33.68;101733.13;5060006;27;46247;-72
2022/07/16 00:31:10;;;;;;;;;4.00;3.33;;;;;25.04;33.31;101742.84;4985766;27;45374;-73
2022/07/16 00:33:36;;;;;;;;;3.33;3.00;;;;;24.97;33.33;101732.38;4984700;28;45818;-74
2022/07/16 00:36:01;;;;;;;;;4.00;3.67;;;;;24.58;33.33;101654.53;4988230;27;45539;-74
2022/07/16 00:38:28;;;;;;;;;4.33;4.00;;;;;25.06;33.28;101744.50;4983464;27;46139;-73
2022/07/16 00:40:55;;;;;;;;;4.33;4.00;;;;;25.06;32.94;101746.31;4983232;27;45661;-80
2022/07/16 00:43:20;;;;;;;;;3.00;3.00;;;;;25.05;33.51;101740.06;4996616;27;45375;-74
2022/07/16 00:45:48;;;;;;;;;3.00;3.00;;;;;24.77;33.13;101708.22;4995529;27;45349;-74
2022/07/16 00:48:14;;;;;;;;;5.33;4.00;;;;;25.04;33.33;101753.56;4989771;27;45603;-72
2022/07/16 00:50:43;;;;;;;;;5.67;5.00;;;;;24.85;33.23;101716.81;4987980;27;45724;-72
2022/07/16 00:53:10;;;;;;;;;8.67;5.67;;;;;24.65;33.80;101689.97;4992056;27;45414;-73
2022/07/16 00:55:36;;;;;;;;;6.00;6.00;;;;;24.90;33.20;101730.88;4993777;27;45472;-72
2022/07/16 00:58:02;;;;;;;;;6.67;6.67;;;;;24.92;33.60;101725.47;4991663;27;46149;-73
2022/07/16 01:00:29;;;;;;;;;5.00;5.00;;;;;24.50;33.37;101667.38;4993331;27;45311;-73
2022/07/16 01:02:54;;;;;;;;;5.67;5.00;;;;;24.81;33.38;101733.94;4993654;27;45532;-71
2022/07/16 01:05:20;;;;;;;;;7.33;6.00;;;;;24.89;33.67;101739.88;4992000;27;45374;-72
2022/07/16 01:07:46;;;;;;;;;4.00;4.00;;;;;24.89;33.91;101741.66;4974434;27;48370;-72
2022/07/16 01:10:18;;;;;;;;;6.00;4.67;;;;;24.84;33.65;101739.16;4995385;27;45589;-72
2022/07/16 01:12:45;;;;;;;;;4.67;4.00;;;;;24.87;33.60;101740.88;5038980;27;45959;-72
2022/07/16 01:15:12;;;;;;;;;3.00;3.00;;;;;24.18;33.80;101639.22;5023141;27;45435;-74
2022/07/16 01:17:38;;;;;;;;;3.67;3.67;;;;;24.40;33.98;101672.22;5014649;27;46250;-72
2022/07/16 01:20:06;;;;;;;;;4.33;3.33;;;;;24.75;33.87;101744.94;4990685;27;46062;-72
2022/07/16 01:22:32;;;;;;;;;4.00;4.00;;;;;24.80;33.57;101748.28;4972997;28;45676;-72
2022/07/16 01:24:58;;;;;;;;;4.00;4.00;;;;;24.26;33.87;101653.19;4976449;28;45541;-72
2022/07/16 01:27:24;;;;;;;;;2.33;2.33;;;;;24.15;33.97;101642.88;4970449;27;45473;-74
2022/07/16 01:29:50;;;;;;;;;3.00;3.00;;;;;24.42;34.16;101682.88;4971374;28;45562;-73
2022/07/16 01:32:16;;;;;;;;;6.00;4.00;;;;;24.34;34.06;101669.78;4971274;27;45575;-73
2022/07/16 01:34:41;;;;;;;;;2.33;2.33;;;;;24.71;34.00;101746.84;4983140;27;45383;-73
2022/07/16 01:37:09;;;;;;;;;3.00;3.00;;;;;24.68;33.86;101754.16;4982981;27;46552;-73
2022/07/16 01:39:40;;;;;;;;;3.33;3.33;;;;;24.53;34.20;101721.69;4970420;27;45355;-73
2022/07/16 01:42:08;;;;;;;;;4.00;4.00;;;;;24.67;34.15;101744.34;4981956;27;45560;-73
2022/07/16 01:44:36;;;;;;;;;5.00;5.00;;;;;24.10;34.04;101656.47;4954516;28;45464;-72
2022/07/16 01:47:03;;;;;;;;;6.00;4.00;;;;;24.43;34.15;101714.94;4971647;27;45445;-73
2022/07/16 01:49:38;;;;;;;;;5.00;5.00;;;;;24.49;33.98;101725.44;4980198;27;45389;-72
2022/07/16 01:52:30;;;;;;;;;4.33;3.67;;;;;24.46;34.27;101725.53;4964645;28;45729;-74
2022/07/16 01:54:55;;;;;;;;;5.00;5.00;;;;;24.57;34.51;101743.00;4977111;27;45526;-74
2022/07/16 01:57:22;;;;;;;;;4.00;4.00;;;;;24.55;34.54;101749.28;4984306;27;46671;-73
2022/07/16 01:59:48;;;;;;;;;4.33;4.00;;;;;24.54;34.69;101742.19;4982322;27;45379;-73
2022/07/16 02:02:14;;;;;;;;;5.33;5.33;;;;;24.37;34.11;101719.66;4977998;27;45411;-73
2022/07/16 02:04:41;;;;;;;;;5.00;5.00;;;;;24.32;34.64;101706.44;4978034;28;46138;-73
2022/07/16 02:07:07;;;;;;;;;1.33;1.00;;;;;24.40;34.69;101723.09;4977337;27;46286;-74
2022/07/16 02:09:33;;;;;;;;;4.00;4.00;;;;;23.88;34.26;101640.38;4981558;27;45452;-74
2022/07/16 02:11:59;;;;;;;;;3.00;3.00;;;;;24.47;34.59;101746.06;4974916;28;45584;-73
2022/07/16 02:14:25;;;;;;;;;3.33;3.33;;;;;23.97;34.40;101655.22;4955568;28;45331;-73
2022/07/16 02:16:51;;;;;;;;;6.00;4.33;;;;;24.17;34.61;101696.38;4973018;27;45530;-73
2022/07/16 02:19:17;;;;;;;;;4.00;3.67;;;;;24.10;34.45;101693.06;4977602;27;45735;-74
2022/07/16 02:21:43;;;;;;;;;6.00;5.00;;;;;23.86;34.54;101642.25;4974259;27;45512;-73
2022/07/16 02:24:08;;;;;;;;;4.33;3.67;;;;;24.26;34.87;101726.31;4980438;27;45845;-74
2022/07/16 02:26:34;;;;;;;;;6.33;4.00;;;;;24.35;34.77;101741.16;4975148;27;46851;-74
2022/07/16 02:29:00;;;;;;;;;5.67;5.67;;;;;23.98;34.83;101683.72;4990659;27;45453;-74
2022/07/16 02:31:26;;;;;;;;;7.00;5.00;;;;;23.47;34.58;101599.19;4994562;27;45402;-73
2022/07/16 02:33:51;;;;;;;;;4.00;4.00;;;;;24.33;34.73;101746.56;4975532;27;45634;-74
2022/07/16 02:36:17;;;;;;;;;3.33;3.33;;;;;24.22;34.69;101732.72;4978681;27;46691;-71
2022/07/16 02:38:43;;;;;;;;;5.67;5.00;;;;;24.30;34.56;101744.00;4980941;27;45521;-75
2022/07/16 02:41:09;;;;;;;;;6.00;5.00;;;;;23.76;34.78;101669.44;4993424;27;45493;-74
2022/07/16 02:43:34;;;;;;;;;6.33;5.33;;;;;24.27;34.57;101745.94;4994150;27;45492;-73
2022/07/16 02:46:00;;;;;;;;;5.00;4.67;;;;;24.25;34.78;101745.09;4979345;28;46971;-72
2022/07/16 02:48:25;;;;;;;;;7.00;5.00;;;;;23.79;34.84;101674.66;4985771;27;45388;-74
2022/07/16 02:50:51;;;;;;;;;4.00;4.00;;;;;24.02;34.87;101711.22;4990420;27;45313;-74
2022/07/16 02:53:17;;;;;;;;;5.00;4.00;;;;;24.18;34.93;101747.19;4994452;27;45602;-73
2022/07/16 02:55:42;;;;;;;;;6.33;6.33;;;;;24.17;35.34;101747.22;4994132;27;46004;-73
2022/07/16 02:58:08;;;;;;;;;5.00;5.00;;;;;23.79;35.50;101693.38;5029108;27;45462;-74
2022/07/16 03:00:33;;;;;;;;;6.33;4.33;;;;;23.48;34.97;101644.56;5018766;27;45472;-73
2022/07/16 03:02:59;;;;;;;;;5.00;5.00;;;;;24.13;35.25;101747.34;4988463;27;45510;-73
2022/07/16 03:05:27;;;;;;;;;4.33;4.00;;;;;24.03;35.16;101732.56;4982247;27;46228;-72
2022/07/16 03:07:53;;;;;;;;;4.33;4.33;;;;;23.40;36.18;101669.84;4989291;27;45459;-73
2022/07/16 03:10:18;;;;;;;;;5.67;3.67;;;;;23.17;36.11;101639.47;4992560;27;45426;-73
2022/07/16 03:12:44;;;;;;;;;5.00;5.00;;;;;23.68;35.54;101723.16;4989050;27;45516;-73
2022/07/16 03:15:12;;;;;;;;;7.33;4.67;;;;;23.43;36.34;101689.31;4982913;27;45507;-74
2022/07/16 03:17:40;;;;;;;;;8.00;4.00;;;;;23.71;36.16;101736.44;4996527;27;45362;-74
2022/07/16 03:20:07;;;;;;;;;6.33;5.00;;;;;23.39;36.96;101714.41;5070045;27;45475;-74
2022/07/16 03:22:33;;;;;;;;;5.33;4.33;;;;;22.59;36.86;101607.66;4990882;27;45509;-72
2022/07/16 03:24:59;;;;;;;;;5.00;5.00;;;;;23.27;36.61;101709.50;4995350;27;46244;-73
2022/07/16 03:27:24;;;;;;;;;4.00;4.00;;;;;23.56;36.36;101747.69;4996679;27;45329;-74
2022/07/16 03:29:50;;;;;;;;;4.33;4.33;;;;;23.43;36.22;101724.06;4995680;27;45393;-72
2022/07/16 03:32:16;;;;;;;;;4.00;4.00;;;;;23.11;36.33;101653.03;4996332;27;45310;-73
2022/07/16 03:34:41;;;;;;;;;6.00;5.00;;;;;23.37;36.02;101699.34;4973342;28;47605;-73
2022/07/16 03:37:08;;;;;;;;;5.33;4.00;;;;;23.38;36.11;101690.41;4991232;27;45370;-72
2022/07/16 03:39:34;;;;;;;;;6.00;4.00;;;;;23.69;35.90;101747.19;4992867;27;45604;-74
2022/07/16 03:42:00;;;;;;;;;5.33;3.67;;;;;23.70;35.89;101762.31;4992674;27;45508;-75
2022/07/16 03:44:26;;;;;;;;;3.00;3.00;;;;;23.53;36.03;101729.09;4980690;27;45560;-72
2022/07/16 03:46:51;;;;;;;;;3.33;3.33;;;;;23.73;35.75;101769.34;4992048;27;45564;-73
2022/07/16 03:49:17;;;;;;;;;5.00;4.00;;;;;23.50;35.78;101725.59;4992255;27;45455;-73
2022/07/16 03:51:43;;;;;;;;;4.00;4.00;;;;;23.51;35.88;101713.09;4990570;27;45470;-73
2022/07/16 03:54:08;;;;;;;;;4.33;4.33;;;;;23.33;36.00;101687.03;4983106;27;46404;-72
2022/07/16 03:56:34;;;;;;;;;3.67;3.67;;;;;23.55;36.09;101721.88;4985902;27;45362;-71
2022/07/16 03:59:03;;;;;;;;;4.00;4.00;;;;;23.78;36.07;101758.53;4957218;28;45813;-74
2022/07/16 04:01:28;;;;;;;;;3.00;2.00;;;;;23.79;36.59;101742.41;4977543;27;45633;-72
2022/07/16 04:03:54;;;;;;;;;4.00;3.67;;;;;23.71;35.82;101734.63;4975531;27;46124;-70
2022/07/16 04:06:20;;;;;;;;;5.00;3.67;;;;;23.87;35.63;101760.81;4971710;27;45611;-70
2022/07/16 04:08:49;;;;;;;;;3.00;3.00;;;;;23.79;36.05;101742.41;4972058;28;45486;-73
2022/07/16 04:11:15;;;;;;;;;3.67;3.67;;;;;23.94;35.83;101761.47;4976977;27;45414;-70
2022/07/16 04:13:40;;;;;;;;;4.67;4.33;;;;;23.94;36.20;101758.81;4971997;28;46058;-73
2022/07/16 04:16:07;;;;;;;;;3.00;3.00;;;;;23.95;36.48;101757.88;4974277;28;46014;-72
2022/07/16 04:18:33;;;;;;;;;2.00;2.00;;;;;23.91;36.25;101757.13;4974804;27;45448;-71
2022/07/16 04:20:59;;;;;;;;;2.33;2.00;;;;;23.97;36.16;101767.59;4975408;28;45567;-71
2022/07/16 04:23:25;;;;;;;;;3.00;3.00;;;;;23.95;36.33;101766.78;4972300;28;45953;-71
2022/07/16 04:25:55;;;;;;;;;2.67;2.67;;;;;23.99;36.53;101772.88;4989202;27;45761;-71
2022/07/16 04:28:20;;;;;;;;;3.33;3.33;;;;;24.00;36.42;101772.81;4994069;27;45426;-72
2022/07/16 04:30:47;;;;;;;;;4.00;3.00;;;;;24.03;36.59;101770.03;4991651;27;45468;-72
2022/07/16 04:33:12;;;;;;;;;5.33;3.67;;;;;24.06;36.52;101777.06;4981391;27;45770;-74
2022/07/16 04:35:38;;;;;;;;;4.00;3.67;;;;;23.85;36.42;101744.00;4992504;27;45444;-71
2022/07/16 04:38:03;;;;;;;;;4.67;4.00;;;;;23.99;36.36;101754.16;4976403;28;45595;-73
2022/07/16 04:40:33;;;;;;;;;3.67;3.00;;;;;24.09;36.13;101785.00;4990549;27;45295;-74
2022/07/16 04:42:59;;;;;;;;;5.67;4.00;;;;;24.09;36.20;101782.31;4974946;27;45282;-74
2022/07/16 04:45:24;;;;;;;;;4.00;4.00;;;;;23.40;36.06;101664.50;4985539;27;45451;-74
2022/07/16 04:47:50;;;;;;;;;3.67;3.67;;;;;24.13;35.84;101781.25;4984358;27;45460;-75
2022/07/16 04:50:16;;;;;;;;;3.00;3.00;;;;;24.13;35.89;101779.47;4973117;27;46107;-75
2022/07/16 04:52:41;;;;;;;;;3.67;3.00;;;;;24.16;35.81;101781.16;4990332;27;45520;-74
2022/07/16 04:55:08;;;;;;;;;6.00;3.00;;;;;24.02;36.14;101751.38;4995124;27;45317;-73
2022/07/16 04:57:33;;;;;;;;;4.00;4.00;;;;;24.15;35.71;101778.53;4995131;27;45565;-73
2022/07/16 04:59:59;;;;;;;;;3.00;3.00;;;;;24.04;35.63;101754.88;4985253;27;45476;-75
2022/07/16 05:05:09;;;;;;;;;4.00;3.33;;;;;24.22;35.64;101785.38;4982245;27;45324;-74
2022/07/16 05:07:35;;;;;;;;;4.33;4.33;;;;;24.23;35.86;101790.69;4990717;27;45524;-74
2022/07/16 05:10:01;;;;;;;;;5.00;3.67;;;;;23.79;35.88;101712.09;4984064;27;45892;-74
2022/07/16 05:12:27;;;;;;;;;4.00;4.00;;;;;24.30;35.99;101794.88;4991273;27;46397;-74
2022/07/16 05:14:53;;;;;;;;;5.00;4.00;;;;;23.88;35.66;101712.63;5014824;27;45698;-73
2022/07/16 05:17:18;;;;;;;;;4.00;4.00;;;;;24.26;35.72;101776.31;5042297;27;45494;-75
2022/07/16 05:19:44;;;;;;;;;4.67;4.67;;;;;23.69;35.86;101727.59;4982773;27;45437;-74
2022/07/16 05:22:09;;;;;;;;;4.00;4.00;;;;;23.53;35.88;101680.97;4978525;28;45708;-75
2022/07/16 05:24:36;;;;;;;;;5.33;4.00;;;;;23.61;35.62;101674.41;4986479;27;45468;-74
2022/07/16 05:27:02;;;;;;;;;5.33;4.33;;;;;23.69;35.94;101684.81;4994140;27;45326;-74
2022/07/16 05:29:28;;;;;;;;;4.67;4.00;;;;;24.10;35.49;101730.53;4994228;27;45660;-73
2022/07/16 05:31:53;;;;;;;;;5.00;5.00;;;;;23.76;35.74;101664.09;4969246;27;47294;-73
2022/07/16 05:34:19;;;;;;;;;3.00;2.00;;;;;24.09;35.85;101716.28;4982109;27;45588;-76
2022/07/16 05:36:45;;;;;;;;;5.67;4.00;;;;;24.47;35.91;101756.75;4996185;27;45526;-74
2022/07/16 05:39:10;;;;;;;;;4.00;4.00;;;;;24.62;35.83;101779.38;4995110;27;45898;-74
2022/07/16 05:41:36;;;;;;;;;5.67;5.00;;;;;24.67;35.57;101776.50;4965617;28;45460;-73
2022/07/16 05:44:02;;;;;;;;;5.33;4.00;;;;;24.52;35.62;101757.44;4983007;27;45409;-78
2022/07/16 05:46:28;;;;;;;;;4.00;3.33;;;;;24.79;35.20;101791.22;4993824;27;45919;-74
2022/07/16 05:48:53;;;;;;;;;6.00;4.00;;;;;24.65;35.30;101757.81;4993912;27;45707;-73
2022/07/16 05:51:19;;;;;;;;;5.67;5.67;;;;;24.31;35.11;101707.41;4992369;27;45768;-74
2022/07/16 05:54:28;;;;;;;;;6.00;4.00;;;;;24.89;35.27;101798.81;4975824;27;45747;-74
2022/07/16 05:56:54;;;;;;;;;5.00;4.33;;;;;24.41;35.13;101716.78;4993999;27;45529;-74
2022/07/16 05:59:19;;;;;;;;;4.00;4.00;;;;;24.71;35.13;101781.69;4993758;27;45526;-74
2022/07/16 06:01:45;;;;;;;;;5.00;3.67;;;;;24.91;34.98;101810.31;4984371;27;45464;-73
2022/07/16 06:04:11;;;;;;;;;3.00;3.00;;;;;24.99;35.13;101818.06;4989178;27;45871;-74
2022/07/16 06:06:39;;;;;;;;;3.00;3.00;;;;;24.90;34.73;101789.84;4981872;27;45365;-74
2022/07/16 06:09:05;;;;;;;;;5.00;4.67;;;;;24.75;34.93;101748.47;4982753;27;45309;-74
2022/07/16 06:11:31;;;;;;;;;4.00;4.00;;;;;25.18;34.52;101816.41;4982220;27;46434;-75
2022/07/16 06:14:07;;;;;;;;;4.00;4.00;;;;;25.24;34.40;101825.09;4967326;27;45476;-75
2022/07/16 06:16:33;;;;;;;;;7.33;4.00;;;;;24.86;34.12;101760.53;4975173;27;45659;-75
2022/07/16 06:18:59;;;;;;;;;4.00;3.33;;;;;25.26;34.41;101813.38;4973175;28;45680;-75
2022/07/16 06:21:24;;;;;;;;;3.67;3.67;;;;;25.28;34.12;101795.41;4974181;27;46868;-75
2022/07/16 06:23:50;;;;;;;;;5.00;5.00;;;;;25.18;34.50;101773.50;4984922;27;45515;-76
2022/07/16 06:26:16;;;;;;;;;5.00;5.00;;;;;25.60;33.77;101828.00;4999510;27;45472;-75
2022/07/16 06:28:42;;;;;;;;;4.67;3.00;;;;;25.68;34.27;101833.94;4997790;27;45374;-76
2022/07/16 06:31:07;;;;;;;;;3.00;3.00;;;;;25.38;34.13;101779.81;4978938;27;45591;-75
2022/07/16 06:33:33;;;;;;;;;8.00;7.00;;;;;25.77;33.41;101836.22;4977800;27;45357;-74
2022/07/16 06:36:03;;;;;;;;;4.67;3.00;;;;;25.64;33.29;101813.53;4986115;27;45422;-75
2022/07/16 06:38:29;;;;;;;;;4.67;4.33;;;;;25.86;33.32;101855.50;4966744;27;45847;-75
2022/07/16 06:41:00;;;;;;;;;4.00;4.00;;;;;25.91;33.35;101853.53;4985916;27;46269;-74
2022/07/16 06:43:26;;;;;;;;;5.67;4.67;;;;;25.99;33.84;101843.31;4984557;27;45412;-74
2022/07/16 06:45:51;;;;;;;;;3.00;3.00;;;;;26.07;33.36;101857.25;4990117;27;45288;-74
2022/07/16 06:48:18;;;;;;;;;4.00;4.00;;;;;25.91;33.42;101827.56;4998137;27;45373;-75
2022/07/16 06:50:44;;;;;;;;;5.67;4.67;;;;;25.89;33.39;101807.09;4974267;27;45707;-74
2022/07/16 06:53:10;;;;;;;;;4.00;4.00;;;;;26.23;32.84;101855.63;4988184;27;45533;-77
2022/07/16 06:55:35;;;;;;;;;5.67;4.33;;;;;25.94;32.59;101816.69;4994543;27;45367;-75
2022/07/16 06:58:01;;;;;;;;;5.33;5.33;;;;;25.72;33.97;101813.19;4998156;27;45287;-76
2022/07/16 07:00:26;;;;;;;;;4.67;4.67;;;;;25.98;33.27;101834.41;4987735;27;46093;-75
2022/07/16 07:02:52;;;;;;;;;6.00;5.33;;;;;25.73;32.91;101788.13;4978592;27;45378;-75
2022/07/16 07:05:18;;;;;;;;;3.67;3.00;;;;;25.80;33.01;101785.06;4984105;27;45536;-75
2022/07/16 07:07:43;;;;;;;;;5.00;3.67;;;;;26.36;32.69;101877.44;4977679;27;45471;-75
2022/07/16 07:10:09;;;;;;;;;2.67;2.67;;;;;26.45;32.70;101876.97;4973902;27;46375;-75
2022/07/16 07:12:36;;;;;;;;;3.67;3.67;;;;;26.19;32.91;101805.69;4978819;28;45430;-76
2022/07/16 07:15:02;;;;;;;;;5.33;4.00;;;;;25.83;32.49;101749.16;4972758;27;45590;-76
2022/07/16 07:17:30;;;;;;;;;3.33;3.33;;;;;26.63;32.13;101872.59;4974642;28;45421;-76
2022/07/16 07:20:11;;;;;;;;;6.00;4.33;;;;;26.65;32.37;101869.84;4974332;28;46161;-76
2022/07/16 07:22:39;;;;;;;;;4.00;4.00;;;;;26.55;32.16;101841.66;4973021;28;45469;-75
2022/07/16 07:25:05;;;;;;;;;3.33;3.33;;;;;26.48;32.19;101833.00;4973776;27;45850;-75
2022/07/16 07:27:31;;;;;;;;;2.67;2.67;;;;;26.75;32.08;101867.59;4994819;27;45306;-74
2022/07/16 07:29:56;;;;;;;;;3.50;3.50;;;;;26.70;32.30;101850.81;4992632;27;45837;-74
2022/07/16 07:32:22;;;;;;;;;6.00;4.00;;;;;26.79;32.04;101875.44;5064790;27;45574;-76
2022/07/16 07:34:52;;;;;;;;;4.00;4.00;;;;;26.77;32.25;101855.81;4983628;27;45878;-74
2022/07/16 07:37:17;;;;;;;;;6.67;5.00;;;;;26.83;32.08;101862.69;4991711;27;45854;-73
2022/07/16 07:39:43;;;;;;;;;5.00;4.00;;;;;26.95;32.21;101871.97;4993201;27;45395;-74
2022/07/16 07:42:09;;;;;;;;;4.33;4.33;;;;;26.94;31.59;101868.44;4991956;27;45669;-75
2022/07/16 07:44:35;;;;;;;;;4.33;4.33;;;;;26.83;31.83;101870.75;4992984;27;45402;-74
2022/07/16 07:47:01;;;;;;;;;3.00;3.00;;;;;26.75;31.70;101852.31;4992109;27;45463;-75
2022/07/16 07:49:27;;;;;;;;;4.00;3.67;;;;;26.86;31.84;101860.75;4992591;27;45456;-71
2022/07/16 07:51:54;;;;;;;;;3.33;3.33;;;;;26.77;32.14;101874.63;4993990;27;45481;-73
2022/07/16 07:54:21;;;;;;;;;4.00;4.00;;;;;26.65;32.65;101861.78;4992402;27;45308;-75
2022/07/16 07:56:47;;;;;;;;;4.00;4.00;;;;;26.58;32.74;101863.88;4992771;27;45500;-75
2022/07/16 07:59:13;;;;;;;;;5.33;5.00;;;;;26.61;32.53;101866.41;4994830;27;46598;-76
2022/07/16 08:01:38;;;;;;;;;8.00;6.00;;;;;26.53;32.64;101875.75;4978064;28;45364;-76
2022/07/16 08:04:04;;;;;;;;;4.33;4.33;;;;;26.33;32.97;101866.81;4979971;27;45437;-74
2022/07/16 08:06:30;;;;;;;;;5.67;5.67;;;;;26.43;32.38;101861.88;4973620;28;45511;-70
2022/07/16 08:08:56;;;;;;;;;6.33;5.00;;;;;26.59;32.26;101880.88;4990211;27;45961;-75
2022/07/16 08:11:21;;;;;;;;;3.33;3.33;;;;;26.61;32.46;101879.84;4993373;27;45429;-73
2022/07/16 08:13:47;;;;;;;;;6.00;6.00;;;;;26.55;32.17;101871.22;4973886;28;45461;-74
2022/07/16 08:16:13;;;;;;;;;4.00;4.00;;;;;26.32;32.72;101880.31;4987817;27;45742;-74
2022/07/16 08:18:38;;;;;;;;;6.00;5.00;;;;;26.42;32.32;101876.25;4991739;27;45554;-75
2022/07/16 08:21:05;;;;;;;;;4.00;4.00;;;;;26.57;32.30;101878.25;4989678;27;45414;-74
2022/07/16 08:26:14;;;;;;;;;4.00;4.00;;;;;26.66;32.21;101855.47;4979094;27;45944;-74
2022/07/16 08:28:42;;;;;;;;;5.33;4.00;;;;;26.72;32.10;101868.59;4987645;27;46331;-77
2022/07/16 08:31:08;;;;;;;;;5.00;3.33;;;;;26.81;32.26;101870.84;4992796;27;45394;-73
2022/07/16 08:33:40;;;;;;;;;4.00;4.00;;;;;26.69;31.89;101847.22;4994074;27;45338;-73
2022/07/16 08:36:06;;;;;;;;;7.00;6.00;;;;;26.72;32.23;101848.91;4990037;27;45556;-76
2022/07/16 08:38:31;;;;;;;;;7.33;6.33;;;;;26.82;32.06;101867.22;4994763;27;45432;-77
2022/07/16 08:41:02;;;;;;;;;5.00;4.67;;;;;26.67;32.20;101842.88;4978034;28;45477;-76
2022/07/16 08:43:29;;;;;;;;;4.33;4.33;;;;;27.04;32.00;101883.16;4991618;28;45478;-77
2022/07/16 08:45:56;;;;;;;;;2.00;2.00;;;;;27.12;31.27;101881.91;4990680;27;45793;-77
2022/07/16 08:48:23;;;;;;;;;4.67;4.67;;;;;27.07;31.90;101879.44;4990218;27;45543;-76
2022/07/16 08:50:50;;;;;;;;;4.00;4.00;;;;;27.11;31.66;101881.03;4994065;27;45479;-76
2022/07/16 08:53:23;;;;;;;;;5.00;3.00;;;;;27.24;31.18;101882.22;4995616;27;45405;-75
2022/07/16 08:55:52;;;;;;;;;5.33;5.33;;;;;27.10;30.01;101863.19;4996120;27;45251;-76
2022/07/16 08:58:18;;;;;;;;;5.00;5.00;;;;;26.73;30.34;101864.09;4991078;27;46052;-75
2022/07/16 09:00:45;;;;;;;;;5.00;5.00;;;;;26.75;31.00;101884.56;4993148;27;45422;-74
2022/07/16 09:03:14;;;;;;;;;5.00;5.00;;;;;26.55;31.02;101866.72;4971511;28;45589;-75
2022/07/16 09:05:41;;;;;;;;;3.33;3.33;;;;;26.80;30.75;101879.84;4985419;28;45449;-75
2022/07/16 09:08:13;;;;;;;;;4.67;4.00;;;;;26.84;30.29;101857.25;4978353;27;45814;-73
2022/07/16 09:10:38;;;;;;;;;4.00;4.00;;;;;27.08;30.51;101874.00;4985607;27;45455;-76
2022/07/16 09:13:05;;;;;;;;;5.33;4.00;;;;;27.24;30.37;101886.69;4985542;27;45428;-74
2022/07/16 09:15:35;;;;;;;;;5.67;4.00;;;;;27.19;30.60;101894.09;4992766;28;45288;-77
2022/07/16 09:18:07;;;;;;;;;6.00;6.00;;;;;27.03;30.49;101886.81;4990830;27;45460;-75
2022/07/16 09:20:33;;;;;;;;;5.67;4.67;;;;;26.50;30.59;101833.78;4974098;27;45438;-77
2022/07/16 09:22:58;;;;;;;;;4.33;4.00;;;;;26.85;30.55;101876.94;4987359;27;45567;-75
2022/07/16 09:25:24;;;;;;;;;5.67;5.67;;;;;27.02;30.45;101884.19;4989398;27;45509;-73
2022/07/16 09:28:00;;;;;;;;;3.33;3.33;;;;;27.14;30.67;101883.56;4986567;27;45645;-74
2022/07/16 09:30:27;;;;;;;;;3.00;3.00;;;;;27.03;30.31;101851.84;5066101;27;45294;-75
2022/07/16 09:32:53;;;;;;;;;3.00;3.00;;;;;27.28;30.19;101883.78;4993627;27;45470;-72
2022/07/16 09:35:21;;;;;;;;;5.00;3.00;;;;;27.35;30.19;101878.97;4994423;27;45503;-75
2022/07/16 09:37:55;;;;;;;;;4.00;4.00;;;;;27.30;29.22;101888.22;4997250;27;45838;-74
2022/07/16 09:40:44;;;;;;;;;6.00;5.33;;;;;26.93;29.72;101855.91;4996635;27;45483;-76
2022/07/16 09:43:13;;;;;;;;;7.00;6.00;;;;;26.68;29.91;101853.56;4995393;27;45475;-74
2022/07/16 09:46:01;;;;;;;;;7.00;7.00;;;;;26.89;30.04;101883.91;4998856;27;45695;-75
2022/07/16 09:48:32;;;;;;;;;7.00;5.00;;;;;26.81;29.93;101876.22;4994750;27;46753;-75
2022/07/16 09:51:22;;;;;;;;;6.33;6.33;;;;;26.68;29.80;101871.50;4994529;27;45381;-76
2022/07/16 09:53:50;;;;;;;;;5.33;5.00;;;;;26.62;29.95;101865.50;4979919;27;45340;-74
2022/07/16 09:56:21;;;;;;;;;6.67;6.67;;;;;26.65;29.85;101884.16;4994698;27;45328;-77
2022/07/16 09:58:53;;;;;;;;;6.00;6.00;;;;;26.61;30.45;101861.03;4991331;27;46055;-71
2022/07/16 10:01:20;;;;;;;;;4.33;4.33;;;;;26.77;30.33;101868.41;4990237;27;45305;-76
2022/07/16 10:03:47;;;;;;;;;4.00;4.00;;;;;27.03;30.05;101888.63;4991787;27;45785;-73
2022/07/16 10:06:13;;;;;;;;;5.00;5.00;;;;;27.06;29.29;101873.19;4993238;27;45645;-75
2022/07/16 10:08:40;;;;;;;;;6.67;6.00;;;;;26.93;29.26;101849.69;5038993;27;46230;-75
2022/07/16 10:11:07;;;;;;;;;4.67;4.67;;;;;26.99;29.59;101887.03;5013575;27;45357;-75
2022/07/16 10:13:42;;;;;;;;;5.67;5.33;;;;;26.84;29.46;101870.69;4994044;27;45703;-75
2022/07/16 10:16:08;;;;;;;;;4.33;4.33;;;;;26.86;29.21;101875.97;4996071;27;45784;-75
2022/07/16 10:18:35;;;;;;;;;4.67;4.67;;;;;27.04;29.06;101877.78;4997259;27;45388;-74
2022/07/16 10:21:07;;;;;;;;;7.00;4.67;;;;;27.19;28.89;101875.28;4989439;27;45900;-74
2022/07/16 10:23:34;;;;;;;;;5.33;5.33;;;;;27.43;28.78;101897.41;4978962;27;45715;-77
2022/07/16 10:26:03;;;;;;;;;5.00;4.33;;;;;27.39;29.26;101890.47;4977089;28;45481;-71
2022/07/16 10:28:48;;;;;;;;;5.33;5.33;;;;;27.46;28.40;101883.81;4980570;27;45820;-77
2022/07/16 10:31:38;;;;;;;;;7.00;5.33;;;;;27.48;28.50;101893.56;5038878;27;45449;-74
2022/07/16 10:34:33;;;;;;;;;6.00;5.67;;;;;27.37;28.74;101870.84;4991549;27;46446;-73
2022/07/16 10:36:59;;;;;;;;;7.00;5.00;;;;;27.60;28.68;101880.44;4989409;27;45525;-75
2022/07/16 10:39:26;;;;;;;;;6.33;6.33;;;;;27.62;28.68;101868.63;4989459;27;46665;-73
2022/07/16 10:41:54;;;;;;;;;7.00;7.00;;;;;27.72;28.25;101878.94;4984760;27;45400;-74
2022/07/16 10:44:22;;;;;;;;;5.00;5.00;;;;;27.67;28.82;101885.41;4991152;27;45419;-76
2022/07/16 10:47:03;;;;;;;;;6.00;4.33;;;;;27.68;28.39;101887.13;4975727;28;45580;-75
2022/07/16 10:49:30;;;;;;;;;5.50;5.50;;;;;27.74;28.75;101883.28;4988716;27;45604;-73
2022/07/16 10:52:00;;;;;;;;;3.50;3.50;;;;;27.90;28.57;101884.25;4984978;27;45418;-73
2022/07/16 10:54:30;;;;;;;;;4.67;4.00;;;;;28.09;28.16;101880.56;4991599;27;45470;-71
2022/07/16 10:56:59;;;;;;;;;4.67;4.00;;;;;28.17;28.16;101859.47;4994029;27;45536;-73
2022/07/16 10:59:28;;;;;;;;;4.00;2.75;;;;;28.31;28.21;101846.13;4990645;27;46195;-74
2022/07/16 11:02:00;;;;;;;;;4.25;3.25;;;;;28.54;27.87;101874.50;4991510;27;45399;-75
2022/07/16 11:04:32;;;;;;;;;5.25;5.25;;;;;28.62;27.62;101871.41;4975536;27;45592;-72
2022/07/16 11:07:00;;;;;;;;;5.25;5.25;;;;;28.73;27.49;101870.78;4993102;27;45540;-69
2022/07/16 11:09:31;;;;;;;;;7.00;5.67;;;;;28.87;26.82;101880.78;4992754;27;46126;-75
2022/07/16 11:12:17;;;;;;;;;5.33;4.33;;;;;28.92;26.59;101857.97;4992836;27;45260;-74
2022/07/16 11:14:46;;;;;;;;;3.00;3.00;;;;;28.94;26.17;101857.91;4992709;27;45378;-71
2022/07/16 11:17:12;;;;;;;;;6.25;5.00;;;;;28.74;26.40;101822.19;4992376;27;45500;-74
2022/07/16 11:19:40;;;;;;;;;6.25;6.00;;;;;28.89;25.99;101851.91;4991362;27;46582;-74
2022/07/16 11:22:06;;;;;;;;;4.50;4.50;;;;;28.75;26.30;101828.44;4978524;28;45298;-74
2022/07/16 11:24:32;;;;;;;;;7.50;6.25;;;;;29.13;26.65;101869.38;4984565;27;45239;-72
2022/07/16 11:26:59;;;;;;;;;6.00;6.00;;;;;29.23;25.90;101858.06;4993314;27;45330;-71
2022/07/16 11:29:32;;;;;;;;;5.00;5.00;;;;;29.34;25.89;101851.06;4985998;27;47158;-76
2022/07/16 11:32:00;;;;;;;;;4.50;4.50;;;;;29.34;25.89;101820.53;4988047;27;45304;-72